createdAt,value
2019-02-10T00:03:26.981Z,99.90
2019-02-10T00:06:10.751Z,99.90
2019-02-10T00:08:51.275Z,99.90
2019-02-10T00:11:32.074Z,99.90
2019-02-10T00:14:12.803Z,99.90
2019-02-10T00:16:54.196Z,99.90
2019-02-10T00:19:34.556Z,99.90
2019-02-10T00:22:16.611Z,99.90
2019-02-10T00:24:57.859Z,99.90
2019-02-10T00:27:38.500Z,99.90
2019-02-10T00:30:19.237Z,99.90
2019-02-10T00:33:00.038Z,99.90
2019-02-10T00:35:40.849Z,99.90
2019-02-10T00:38:21.691Z,99.90
2019-02-10T00:41:02.328Z,99.90
2019-02-10T00:43:43.380Z,99.90
2019-02-10T00:46:24.094Z,99.90
2019-02-10T00:49:05.300Z,99.90
2019-02-10T00:51:46.084Z,99.90
2019-02-10T00:54:27.184Z,99.90
2019-02-10T00:57:08.121Z,99.90
2019-02-10T00:59:49.169Z,99.90
2019-02-10T01:02:30.110Z,99.90
2019-02-10T01:05:11.325Z,99.90
2019-02-10T01:07:52.289Z,99.90
2019-02-10T01:10:33.419Z,99.90
2019-02-10T01:13:14.252Z,99.90
2019-02-10T01:15:54.981Z,99.90
2019-02-10T01:18:35.665Z,99.90
2019-02-10T01:21:04.780Z,99.90
2019-02-10T01:23:52.936Z,99.90
2019-02-10T01:26:41.097Z,99.90
2019-02-10T01:29:21.914Z,99.90
2019-02-10T01:32:02.635Z,99.90
2019-02-10T01:34:43.738Z,99.90
2019-02-10T01:37:24.507Z,99.90
2019-02-10T01:40:05.322Z,99.90
2019-02-10T01:42:46.435Z,99.90
2019-02-10T01:45:27.229Z,99.90
2019-02-10T01:48:07.961Z,99.90
2019-02-10T01:50:48.709Z,99.90
2019-02-10T01:53:29.589Z,99.90
2019-02-10T01:56:10.707Z,99.90
2019-02-10T01:58:51.646Z,99.90
2019-02-10T02:01:32.558Z,99.90
2019-02-10T02:04:13.236Z,99.90
2019-02-10T02:06:57.970Z,99.90
2019-02-10T02:09:36.721Z,99.90
2019-02-10T02:12:17.700Z,99.90
2019-02-10T02:14:58.606Z,99.90
2019-02-10T02:17:39.385Z,99.90
2019-02-10T02:20:20.121Z,99.90
2019-02-10T02:23:00.796Z,99.90
2019-02-10T02:25:41.970Z,99.90
2019-02-10T02:28:22.636Z,99.90
2019-02-10T02:31:03.348Z,99.90
2019-02-10T02:33:45.300Z,99.90
2019-02-10T02:36:26.520Z,99.90
2019-02-10T02:39:07.801Z,99.90
2019-02-10T02:41:48.705Z,99.90
2019-02-10T02:44:29.856Z,99.90
2019-02-10T02:47:10.531Z,99.90
2019-02-10T02:49:51.233Z,99.90
2019-02-10T02:52:31.929Z,99.90
2019-02-10T02:55:12.415Z,99.90
2019-02-10T02:57:53.291Z,99.90
2019-02-10T03:00:34.193Z,99.90
2019-02-10T03:03:15.046Z,99.90
2019-02-10T03:05:56.033Z,99.90
2019-02-10T03:08:36.822Z,99.90
2019-02-10T03:11:17.592Z,99.90
2019-02-10T03:13:59.954Z,99.90
2019-02-10T03:16:41.246Z,99.90
2019-02-10T03:19:22.030Z,99.90
2019-02-10T03:22:02.728Z,99.90
2019-02-10T03:24:43.752Z,99.90
2019-02-10T03:27:24.945Z,99.90
2019-02-10T03:30:05.781Z,99.90
2019-02-10T03:32:46.313Z,99.90
2019-02-10T03:35:27.137Z,99.90
2019-02-10T03:38:07.897Z,99.90
2019-02-10T03:40:48.833Z,99.90
2019-02-10T03:43:29.662Z,99.90
2019-02-10T03:46:10.492Z,99.90
2019-02-10T03:48:51.426Z,99.90
2019-02-10T03:51:32.193Z,99.90
2019-02-10T03:54:13.047Z,99.90
2019-02-10T03:56:53.872Z,99.90
2019-02-10T03:59:34.832Z,99.90
2019-02-10T04:02:15.646Z,99.90
2019-02-10T04:04:56.890Z,99.60
2019-02-10T04:07:37.666Z,73.20
2019-02-10T04:10:19.005Z,88.70
2019-02-10T04:12:59.863Z,60.40
2019-02-10T04:15:40.699Z,69.00
2019-02-10T04:18:24.595Z,65.60
2019-02-10T04:21:05.636Z,63.90
2019-02-10T04:23:46.426Z,60.50
2019-02-10T04:26:27.272Z,59.50
2019-02-10T04:29:08.282Z,59.10
2019-02-10T04:31:49.376Z,58.00
2019-02-10T04:34:30.212Z,62.60
2019-02-10T04:37:11.050Z,57.30
2019-02-10T04:39:52.222Z,55.80
2019-02-10T04:42:33.562Z,56.00
2019-02-10T04:45:14.262Z,56.60
2019-02-10T04:47:55.117Z,52.40
2019-02-10T04:50:35.847Z,58.70
2019-02-10T04:53:17.108Z,53.70
2019-02-10T04:55:58.107Z,52.60
2019-02-10T04:58:38.913Z,54.90
2019-02-10T05:01:19.771Z,55.10
2019-02-10T05:04:00.541Z,54.20
2019-02-10T05:06:41.451Z,51.00
2019-02-10T05:09:21.994Z,49.80
2019-02-10T05:12:03.280Z,52.10
2019-02-10T05:14:44.152Z,52.50
2019-02-10T05:17:25.463Z,51.80
2019-02-10T05:20:06.349Z,51.70
2019-02-10T05:22:47.049Z,49.70
2019-02-10T05:25:28.093Z,52.00
2019-02-10T05:28:09.064Z,49.60
2019-02-10T05:30:49.998Z,49.60
2019-02-10T05:33:30.683Z,49.20
2019-02-10T05:36:11.432Z,48.80
2019-02-10T05:38:52.067Z,48.90
2019-02-10T05:41:32.878Z,49.70
2019-02-10T05:44:13.666Z,49.50
2019-02-10T05:46:54.864Z,49.10
2019-02-10T05:49:35.727Z,48.40
2019-02-10T05:52:04.767Z,48.90
2019-02-10T05:54:52.952Z,47.90
2019-02-10T05:57:34.189Z,48.70
2019-02-10T06:00:14.844Z,48.30
2019-02-10T06:02:55.547Z,47.60
2019-02-10T06:05:36.621Z,48.50
2019-02-10T06:08:18.194Z,47.60
2019-02-10T06:10:58.683Z,49.40
2019-02-10T06:13:39.610Z,46.70
2019-02-10T06:16:20.066Z,46.30
2019-02-10T06:19:00.963Z,47.20
2019-02-10T06:21:41.589Z,48.50
2019-02-10T06:24:22.450Z,47.40
2019-02-10T06:27:03.442Z,49.50
2019-02-10T06:29:43.864Z,47.40
2019-02-10T06:32:25.120Z,47.30
2019-02-10T06:35:05.765Z,47.70
2019-02-10T06:37:34.818Z,47.60
2019-02-10T06:40:22.964Z,47.10
2019-02-10T06:43:03.566Z,47.20
2019-02-10T06:45:44.126Z,47.30
2019-02-10T06:48:24.748Z,47.00
2019-02-10T06:51:05.415Z,46.80
2019-02-10T06:53:46.310Z,47.60
2019-02-10T06:56:27.080Z,47.30
2019-02-10T06:59:11.800Z,47.90
2019-02-10T07:01:56.671Z,48.40
2019-02-10T07:04:37.902Z,48.70
2019-02-10T07:07:18.573Z,48.30
2019-02-10T07:09:59.345Z,48.00
2019-02-10T07:12:40.160Z,47.90
2019-02-10T07:15:20.787Z,48.00
2019-02-10T07:18:01.772Z,47.80
2019-02-10T07:20:42.486Z,48.60
2019-02-10T07:23:23.293Z,46.70
2019-02-10T07:26:04.297Z,47.60
2019-02-10T07:28:45.016Z,47.20
2019-02-10T07:31:25.850Z,46.40
2019-02-10T07:34:06.479Z,46.80
2019-02-10T07:36:47.316Z,46.70
2019-02-10T07:39:28.349Z,46.20
2019-02-10T07:42:35.633Z,47.10
2019-02-10T07:45:16.247Z,47.40
2019-02-10T07:47:57.297Z,47.10
2019-02-10T07:50:38.444Z,47.80
2019-02-10T07:53:19.282Z,48.10
2019-02-10T07:56:00.234Z,45.50
2019-02-10T07:58:41.679Z,48.10
2019-02-10T08:01:22.308Z,47.80
2019-02-10T08:04:03.123Z,46.60
2019-02-10T08:06:44.080Z,47.90
2019-02-10T08:09:24.757Z,47.00
2019-02-10T08:12:05.562Z,45.50
2019-02-10T08:14:46.273Z,45.50
2019-02-10T08:17:27.165Z,46.80
2019-02-10T08:20:07.909Z,45.80
2019-02-10T08:23:15.174Z,45.90
2019-02-10T08:26:11.220Z,45.90
2019-02-10T08:28:52.332Z,47.00
2019-02-10T08:31:33.342Z,45.50
2019-02-10T08:34:14.125Z,45.50
2019-02-10T08:36:54.928Z,44.80
2019-02-10T08:39:35.705Z,46.70
2019-02-10T08:42:16.603Z,46.50
2019-02-10T08:44:57.333Z,46.10
2019-02-10T08:47:38.542Z,44.60
2019-02-10T08:50:19.392Z,45.30
2019-02-10T08:53:00.258Z,46.20
2019-02-10T08:55:41.187Z,45.20
2019-02-10T08:58:21.814Z,45.10
2019-02-10T09:01:02.226Z,45.20
2019-02-10T09:03:43.436Z,44.20
2019-02-10T09:06:24.136Z,45.70
2019-02-10T09:09:05.470Z,44.60
2019-02-10T09:11:34.353Z,46.20
2019-02-10T09:14:22.564Z,45.80
2019-02-10T09:17:03.888Z,45.10
2019-02-10T09:19:44.607Z,46.20
2019-02-10T09:22:25.332Z,45.10
2019-02-10T09:25:06.167Z,46.20
2019-02-10T09:27:46.962Z,45.20
2019-02-10T09:30:27.859Z,47.60
2019-02-10T09:33:08.708Z,45.60
2019-02-10T09:35:49.684Z,45.60
2019-02-10T09:38:30.557Z,46.20
2019-02-10T09:41:11.338Z,46.30
2019-02-10T09:43:52.048Z,46.20
2019-02-10T09:46:32.894Z,45.10
2019-02-10T09:49:13.926Z,45.10
2019-02-10T09:51:54.647Z,44.80
2019-02-10T09:54:35.988Z,46.00
2019-02-10T09:57:16.542Z,45.20
2019-02-10T09:59:57.396Z,44.70
2019-02-10T10:02:37.808Z,44.60
2019-02-10T10:05:18.308Z,46.10
2019-02-10T10:07:58.996Z,45.10
2019-02-10T10:10:39.779Z,45.20
2019-02-10T10:13:20.728Z,45.50
2019-02-10T10:16:01.266Z,45.90
2019-02-10T10:18:42.560Z,45.80
2019-02-10T10:21:23.294Z,46.90
2019-02-10T10:24:04.193Z,45.90
2019-02-10T10:26:45.079Z,46.30
2019-02-10T10:29:25.883Z,47.20
2019-02-10T10:32:06.587Z,45.90
2019-02-10T10:34:47.287Z,46.00
2019-02-10T10:37:28.152Z,47.40
2019-02-10T10:40:08.936Z,46.90
2019-02-10T10:42:49.750Z,46.00
2019-02-10T10:45:30.665Z,46.70
2019-02-10T10:48:11.630Z,45.80
2019-02-10T10:50:52.345Z,46.50
2019-02-10T10:53:33.056Z,46.80
2019-02-10T10:56:13.512Z,46.40
2019-02-10T10:58:54.383Z,45.70
2019-02-10T11:01:35.154Z,45.40
2019-02-10T11:04:15.880Z,46.60
2019-02-10T11:06:56.977Z,47.60
2019-02-10T11:09:26.032Z,46.00
2019-02-10T11:12:14.216Z,46.50
2019-02-10T11:14:55.337Z,46.30
2019-02-10T11:17:36.217Z,46.40
2019-02-10T11:20:17.389Z,45.10
2019-02-10T11:22:58.222Z,45.40
2019-02-10T11:25:38.864Z,45.70
2019-02-10T11:28:07.807Z,45.30
2019-02-10T11:30:36.860Z,44.00
2019-02-10T11:33:25.013Z,45.00
2019-02-10T11:36:05.921Z,44.10
2019-02-10T11:38:46.563Z,43.30
2019-02-10T11:41:15.521Z,45.20
2019-02-10T11:44:03.697Z,44.00
2019-02-10T11:46:44.772Z,43.50
2019-02-10T11:49:25.638Z,45.10
2019-02-10T11:52:06.752Z,44.70
2019-02-10T11:54:47.634Z,44.20
2019-02-10T11:57:28.265Z,44.10
2019-02-10T12:00:09.285Z,44.60
2019-02-10T12:02:50.117Z,44.30
2019-02-10T12:05:30.906Z,43.80
2019-02-10T12:08:11.815Z,45.10
2019-02-10T12:10:52.468Z,44.70
2019-02-10T12:13:33.311Z,43.40
2019-02-10T12:16:14.023Z,43.80
2019-02-10T12:18:54.792Z,43.50
2019-02-10T12:21:23.841Z,44.90
2019-02-10T12:24:12.094Z,42.70
2019-02-10T12:27:00.277Z,42.80
2019-02-10T12:29:41.350Z,42.60
2019-02-10T12:32:21.805Z,42.30
2019-02-10T12:35:03.051Z,43.40
2019-02-10T12:37:43.744Z,42.20
2019-02-10T12:40:24.532Z,44.50
2019-02-10T12:45:49.044Z,43.30
2019-02-10T12:48:29.828Z,42.10
2019-02-10T12:51:10.668Z,42.50
2019-02-10T12:53:51.402Z,45.30
2019-02-10T12:56:31.832Z,44.20
2019-02-10T12:59:12.464Z,43.90
2019-02-10T13:01:53.168Z,43.40
2019-02-10T13:04:36.608Z,43.80
2019-02-10T13:07:17.199Z,43.50
2019-02-10T13:09:58.038Z,42.80
2019-02-10T13:12:38.742Z,44.00
2019-02-10T13:15:19.614Z,44.60
2019-02-10T13:18:00.837Z,44.00
2019-02-10T13:20:41.782Z,45.10
2019-02-10T13:23:22.620Z,44.30
2019-02-10T13:26:03.296Z,43.90
2019-02-10T13:28:44.110Z,43.50
2019-02-10T13:31:24.989Z,42.70
2019-02-10T13:34:05.654Z,43.80
2019-02-10T13:36:47.388Z,44.30
2019-02-10T13:39:28.179Z,44.20
2019-02-10T13:42:09.026Z,44.60
2019-02-10T13:44:49.758Z,44.30
2019-02-10T13:47:30.318Z,43.60
2019-02-10T13:50:11.129Z,44.10
2019-02-10T13:52:51.930Z,43.30
2019-02-10T13:55:32.702Z,44.30
2019-02-10T13:58:13.573Z,43.70
2019-02-10T14:00:54.428Z,44.80
2019-02-10T14:03:35.276Z,43.70
2019-02-10T14:06:15.951Z,43.20
2019-02-10T14:08:56.910Z,44.30
2019-02-10T14:11:37.777Z,44.10
2019-02-10T14:14:18.448Z,44.00
2019-02-10T14:16:59.068Z,44.50
2019-02-10T14:19:28.105Z,45.70
2019-02-10T14:22:16.275Z,44.70
2019-02-10T14:24:57.580Z,44.90
2019-02-10T14:27:38.187Z,44.70
2019-02-10T14:30:19.096Z,44.90
2019-02-10T14:32:59.964Z,44.40
2019-02-10T14:35:40.972Z,44.30
2019-02-10T14:38:21.782Z,44.40
2019-02-10T14:41:02.806Z,45.50
2019-02-10T14:43:43.597Z,45.40
2019-02-10T14:46:24.616Z,45.10
2019-02-10T14:49:05.519Z,45.10
2019-02-10T14:51:46.398Z,45.60
2019-02-10T14:54:27.188Z,45.30
2019-02-10T14:57:07.888Z,45.40
2019-02-10T14:59:48.530Z,46.00
2019-02-10T15:02:29.442Z,45.10
2019-02-10T15:07:48.785Z,44.60
2019-02-10T15:10:32.552Z,44.60
2019-02-10T15:13:13.299Z,45.70
2019-02-10T15:15:53.804Z,44.20
2019-02-10T15:18:34.871Z,44.70
2019-02-10T15:21:15.540Z,43.50
2019-02-10T15:23:56.387Z,44.30
2019-02-10T15:26:37.161Z,44.30
2019-02-10T15:29:18.167Z,43.10
2019-02-10T15:32:00.316Z,44.50
2019-02-10T15:34:41.144Z,44.90
2019-02-10T15:37:21.607Z,44.50
2019-02-10T15:40:02.638Z,44.20
2019-02-10T15:42:43.452Z,44.50
2019-02-10T15:45:24.233Z,45.30
2019-02-10T15:48:05.067Z,45.20
2019-02-10T15:50:46.319Z,44.70
2019-02-10T15:53:27.168Z,44.70
2019-02-10T15:56:08.109Z,45.50
2019-02-10T15:58:49.182Z,45.90
2019-02-10T16:01:29.577Z,46.00
2019-02-10T16:04:10.506Z,46.40
2019-02-10T16:06:51.518Z,46.40
2019-02-10T16:09:32.117Z,46.80
2019-02-10T16:12:12.924Z,46.40
2019-02-10T16:14:54.065Z,46.50
2019-02-10T16:17:34.841Z,46.90
2019-02-10T16:20:15.680Z,47.00
2019-02-10T16:22:56.359Z,46.90
2019-02-10T16:25:37.100Z,47.40
2019-02-10T16:28:18.132Z,48.20
2019-02-10T16:30:58.867Z,48.60
2019-02-10T16:36:22.868Z,50.70
2019-02-10T16:39:05.317Z,50.10
2019-02-10T16:41:46.100Z,51.30
2019-02-10T16:44:27.006Z,52.90
2019-02-10T16:47:07.637Z,54.00
2019-02-10T16:49:48.372Z,54.50
2019-02-10T16:52:29.311Z,54.50
2019-02-10T16:55:13.233Z,54.50
2019-02-10T16:57:54.601Z,55.90
2019-02-10T17:00:35.949Z,56.20
2019-02-10T17:03:16.895Z,55.90
2019-02-10T17:05:57.840Z,55.40
2019-02-10T17:08:38.736Z,55.70
2019-02-10T17:13:58.106Z,66.30
2019-02-10T17:16:39.148Z,99.90
2019-02-10T17:19:20.435Z,99.90
2019-02-10T17:22:01.203Z,99.90
2019-02-10T17:24:41.965Z,99.90
2019-02-10T17:27:22.845Z,99.90
2019-02-10T17:30:03.496Z,99.90
2019-02-10T17:32:32.492Z,99.90
2019-02-10T17:35:20.949Z,99.90
2019-02-10T17:38:02.051Z,99.90
2019-02-10T17:40:42.863Z,99.90
2019-02-10T17:43:28.222Z,99.90
2019-02-10T17:46:06.603Z,99.90
2019-02-10T17:48:47.716Z,99.90
2019-02-10T17:51:28.738Z,99.90
2019-02-10T17:54:10.202Z,99.90
2019-02-10T17:56:51.366Z,99.90
2019-02-10T17:59:32.543Z,99.90
2019-02-10T18:02:14.583Z,99.90
2019-02-10T18:04:55.406Z,99.90
2019-02-10T18:07:24.402Z,99.90
2019-02-10T18:10:12.579Z,99.90
2019-02-10T18:12:53.403Z,99.90
2019-02-10T18:15:41.494Z,99.90
2019-02-10T18:18:48.715Z,99.90
2019-02-10T18:21:36.651Z,99.90
2019-02-10T18:24:43.906Z,99.90
2019-02-10T18:27:32.026Z,99.90
2019-02-10T18:30:38.338Z,99.90
2019-02-10T18:33:37.978Z,99.90
2019-02-10T18:36:38.445Z,99.90
2019-02-10T18:39:34.272Z,99.90
2019-02-10T18:42:37.457Z,99.90
2019-02-10T18:45:37.194Z,99.90
2019-02-10T18:48:40.331Z,99.90
2019-02-10T18:51:27.910Z,99.90
2019-02-10T18:54:27.549Z,99.90
2019-02-10T18:57:27.193Z,99.90
2019-02-10T19:00:26.704Z,99.90
2019-02-10T19:03:27.076Z,99.90
2019-02-10T19:09:30.350Z,99.90
2019-02-10T19:12:30.652Z,99.90
2019-02-10T19:15:22.585Z,99.90
2019-02-10T19:18:22.844Z,99.90
2019-02-10T19:21:22.388Z,99.90
2019-02-10T19:27:18.352Z,99.90
2019-02-10T19:29:56.543Z,99.90
2019-02-10T19:33:03.690Z,99.90
2019-02-10T19:36:10.895Z,99.90
2019-02-10T19:39:16.988Z,99.90
2019-02-10T19:42:17.357Z,99.90
2019-02-10T19:48:19.339Z,99.90
2019-02-10T19:51:19.508Z,99.90
2019-02-10T19:54:10.697Z,99.90
2019-02-10T19:57:10.846Z,99.90
2019-02-10T20:00:10.478Z,99.90
2019-02-10T20:02:58.828Z,99.90
2019-02-10T20:05:49.452Z,99.90
2019-02-10T20:08:55.316Z,99.90
2019-02-10T20:11:55.253Z,99.90
2019-02-10T20:14:57.841Z,99.90
2019-02-10T20:17:45.701Z,99.90
2019-02-10T20:20:45.630Z,99.90
2019-02-10T20:23:45.294Z,99.90
2019-02-10T20:26:51.643Z,99.90
2019-02-10T20:32:54.413Z,99.90
2019-02-10T20:35:59.920Z,99.90
2019-02-10T20:38:59.837Z,99.90
2019-02-10T20:41:47.502Z,99.90
2019-02-10T20:44:35.633Z,99.90
2019-02-10T20:47:42.847Z,99.90
2019-02-10T20:50:43.430Z,99.90
2019-02-10T20:53:43.492Z,99.90
2019-02-10T20:59:09.654Z,99.90
2019-02-10T21:02:07.012Z,99.90
2019-02-10T21:04:54.296Z,99.90
2019-02-10T21:07:42.518Z,99.90
2019-02-10T21:10:42.684Z,99.90
2019-02-10T21:13:43.022Z,99.90
2019-02-10T21:16:42.669Z,99.90
2019-02-10T21:19:36.654Z,99.90
2019-02-10T21:22:24.650Z,99.90
2019-02-10T21:25:31.778Z,99.90
2019-02-10T21:28:38.025Z,99.90
2019-02-10T21:31:52.873Z,99.90
2019-02-10T21:34:28.599Z,99.90
2019-02-10T21:37:35.803Z,99.90
2019-02-10T21:43:32.440Z,99.90
2019-02-10T21:46:22.417Z,99.90
2019-02-10T21:49:11.211Z,99.90
2019-02-10T21:51:52.454Z,99.90
2019-02-10T21:54:33.633Z,99.90
2019-02-10T21:57:14.540Z,99.90
2019-02-10T21:59:55.391Z,99.90
2019-02-10T22:02:35.911Z,99.90
2019-02-10T22:05:16.673Z,99.90
2019-02-10T22:07:57.405Z,99.90
2019-02-10T22:10:38.217Z,99.90
2019-02-10T22:13:19.550Z,99.90
2019-02-10T22:16:00.782Z,99.90
2019-02-10T22:18:41.732Z,99.90
2019-02-10T22:21:22.575Z,99.90
2019-02-10T22:26:41.777Z,99.90
2019-02-10T22:29:22.714Z,99.90
2019-02-10T22:32:03.501Z,99.90
2019-02-10T22:37:27.723Z,99.90
2019-02-10T22:40:08.209Z,99.90
2019-02-10T22:42:45.160Z,99.90
2019-02-10T22:45:27.109Z,99.90
2019-02-10T22:48:08.303Z,99.90
2019-02-10T22:50:49.169Z,99.90
2019-02-10T22:53:18.148Z,99.90
2019-02-10T22:56:06.385Z,99.90
2019-02-10T22:58:46.961Z,99.90
2019-02-10T23:01:27.730Z,99.90
2019-02-10T23:04:08.408Z,99.90
2019-02-10T23:06:49.253Z,99.90
2019-02-10T23:09:37.357Z,99.90
2019-02-10T23:12:25.532Z,99.90
2019-02-10T23:15:06.185Z,99.90
2019-02-10T23:17:47.020Z,99.90
2019-02-10T23:20:27.771Z,99.90
2019-02-10T23:23:08.599Z,99.90
2019-02-10T23:25:49.521Z,99.90
2019-02-10T23:28:30.629Z,99.90
2019-02-10T23:31:11.339Z,99.90
2019-02-10T23:33:52.180Z,99.90
2019-02-10T23:36:21.227Z,99.90
2019-02-10T23:39:09.380Z,99.90
2019-02-10T23:41:57.524Z,99.90
2019-02-10T23:44:38.317Z,99.90
2019-02-10T23:47:07.401Z,99.90
2019-02-10T23:49:55.492Z,99.90
2019-02-10T23:52:43.642Z,99.90
2019-02-10T23:55:24.130Z,99.90
2019-02-10T23:58:04.707Z,99.90
